Time;durP1;ratioP1;P1;durP2;ratioP2;P2;SDS_P1;SDS_P2;PMS_P1;PMS_P2;Temp;Humidity;BMP_temperature;BMP_pressure;BME280_temperature;BME280_humidity;BME280_pressure;Samples;Min_cycle;Max_cycle;Signal;HPM_P1;HPM_P2
2023/10/28 00:01:49;;;;;;;3.63;1.00;;;;;;;16.97;38.65;101628.75;5072231;28;20032;-55
2023/10/28 00:04:15;;;;;;;2.83;1.30;;;;;;;16.85;37.84;101620.59;5056824;28;20057;-55
2023/10/28 00:06:41;;;;;;;2.95;0.90;;;;;;;16.83;38.79;101622.69;5052299;28;20021;-54
2023/10/28 00:09:07;;;;;;;1.52;1.13;;;;;;;17.09;38.67;101627.72;5052526;28;20025;-56
2023/10/28 00:11:35;;;;;;;2.15;0.93;;;;;;;16.96;39.83;101618.97;5052301;28;20036;-53
2023/10/28 00:14:02;;;;;;;1.95;0.95;;;;;;;17.01;40.77;101625.34;5052245;28;20119;-54
2023/10/28 00:16:28;;;;;;;2.42;1.00;;;;;;;16.73;40.09;101623.25;5064202;28;20032;-55
2023/10/28 00:18:54;;;;;;;2.45;0.98;;;;;;;16.71;39.89;101621.78;5065945;28;20029;-57
2023/10/28 00:21:21;;;;;;;6.63;1.05;;;;;;;16.66;40.35;101610.81;5071811;28;20033;-57
2023/10/28 00:23:47;;;;;;;2.22;1.40;;;;;;;16.70;39.49;101622.81;5060374;28;20048;-53
2023/10/28 00:26:14;;;;;;;2.92;1.10;;;;;;;16.54;40.61;101616.97;5051640;28;20108;-52
2023/10/28 00:28:40;;;;;;;1.42;1.00;;;;;;;16.58;40.22;101620.06;5055092;28;20050;-56
2023/10/28 00:31:06;;;;;;;2.35;1.10;;;;;;;16.27;41.19;101624.59;5071935;28;20020;-56
2023/10/28 00:33:34;;;;;;;2.55;1.00;;;;;;;16.44;42.12;101627.53;5070747;28;20024;-53
2023/10/28 00:36:07;;;;;;;1.98;0.90;;;;;;;16.51;41.13;101620.16;5068060;28;20039;-51
2023/10/28 00:38:34;;;;;;;1.55;0.90;;;;;;;16.57;42.68;101630.06;5069830;28;20031;-57
2023/10/28 00:41:00;;;;;;;4.32;1.00;;;;;;;16.56;44.21;101630.28;5071699;28;20025;-53
2023/10/28 00:43:27;;;;;;;1.38;1.00;;;;;;;16.35;44.52;101635.09;5070482;28;20081;-56
2023/10/28 00:45:56;;;;;;;1.52;1.00;;;;;;;16.36;43.69;101627.81;5071865;28;20036;-57
2023/10/28 00:48:23;;;;;;;2.97;1.00;;;;;;;16.03;43.63;101630.84;5071370;28;20082;-58
2023/10/28 00:50:50;;;;;;;2.22;1.00;;;;;;;16.15;44.41;101636.34;5070229;28;20024;-57
2023/10/28 00:53:17;;;;;;;1.40;0.90;;;;;;;16.06;44.45;101633.94;5071208;28;20458;-58
2023/10/28 00:55:43;;;;;;;3.58;1.42;;;;;;;16.12;44.41;101629.53;5065921;28;20021;-58
2023/10/28 00:58:10;;;;;;;2.15;1.00;;;;;;;16.08;44.80;101633.72;5067514;28;20446;-58
2023/10/28 01:00:37;;;;;;;2.40;0.95;;;;;;;16.04;45.36;101625.22;5071813;28;20032;-57
2023/10/28 01:03:03;;;;;;;2.40;1.10;;;;;;;16.06;47.43;101628.53;5071515;28;20064;-57
2023/10/28 01:05:30;;;;;;;3.58;1.27;;;;;;;15.93;49.35;101631.34;5071506;28;20545;-58
2023/10/28 01:07:58;;;;;;;3.35;1.30;;;;;;;15.93;50.32;101634.06;5071509;28;20482;-58
2023/10/28 01:10:29;;;;;;;2.22;1.23;;;;;;;16.00;50.93;101634.84;5071436;28;20032;-58
2023/10/28 01:12:55;;;;;;;2.33;1.60;;;;;;;15.90;51.57;101639.91;5071570;28;20445;-58
2023/10/28 01:15:23;;;;;;;4.05;2.00;;;;;;;15.87;51.80;101643.03;5071604;28;20470;-58
2023/10/28 01:17:49;;;;;;;3.15;1.67;;;;;;;15.96;53.25;101639.03;5071474;28;20024;-58
2023/10/28 01:20:16;;;;;;;6.95;2.03;;;;;;;15.95;54.05;101637.38;5071728;28;20029;-59
2023/10/28 01:22:43;;;;;;;3.63;1.42;;;;;;;15.76;53.37;101641.88;5069286;28;20028;-58
2023/10/28 01:25:09;;;;;;;3.92;1.58;;;;;;;15.62;50.21;101642.22;5071426;28;20102;-58
2023/10/28 01:27:39;;;;;;;2.85;1.25;;;;;;;15.62;48.63;101651.13;5071874;28;20021;-58
2023/10/28 01:30:07;;;;;;;1.13;0.95;;;;;;;15.49;48.64;101657.47;5064076;28;20529;-58
2023/10/28 01:32:33;;;;;;;2.75;1.05;;;;;;;15.44;48.94;101657.28;5051068;28;20112;-58
2023/10/28 01:34:59;;;;;;;2.58;1.08;;;;;;;15.50;48.52;101666.38;5050696;28;20025;-58
2023/10/28 01:37:26;;;;;;;2.58;1.23;;;;;;;15.33;49.60;101666.06;5054107;28;20028;-58
2023/10/28 01:39:52;;;;;;;2.28;1.40;;;;;;;15.19;50.32;101662.63;5055606;28;20370;-58
2023/10/28 01:42:20;;;;;;;2.47;1.23;;;;;;;15.09;50.72;101661.44;5065401;28;20467;-58
2023/10/28 01:44:48;;;;;;;2.35;1.20;;;;;;;15.09;51.10;101661.44;5050847;28;20029;-58
2023/10/28 01:47:15;;;;;;;2.15;1.10;;;;;;;14.87;52.13;101660.91;5051394;28;20029;-58
2023/10/28 01:49:42;;;;;;;1.65;0.90;;;;;;;14.73;53.16;101655.59;5051053;28;20029;-58
2023/10/28 01:52:10;;;;;;;2.67;1.20;;;;;;;14.68;53.76;101665.34;5051230;28;20082;-58
2023/10/28 01:54:37;;;;;;;3.25;1.50;;;;;;;14.82;53.86;101664.25;5050680;28;20075;-58
2023/10/28 01:57:07;;;;;;;3.22;1.20;;;;;;;14.81;54.11;101665.28;5050936;28;20471;-58
2023/10/28 01:59:34;;;;;;;2.13;1.13;;;;;;;14.76;54.15;101667.78;5061071;28;20044;-49
2023/10/28 02:02:02;;;;;;;2.97;1.40;;;;;;;14.68;54.42;101663.47;5070909;28;20443;-52
2023/10/28 02:04:30;;;;;;;1.75;1.00;;;;;;;14.60;54.42;101666.41;5070068;28;20078;-53
2023/10/28 02:06:57;;;;;;;3.28;1.50;;;;;;;14.65;54.71;101679.25;5067914;28;20421;-53
2023/10/28 02:09:25;;;;;;;3.65;1.40;;;;;;;14.58;54.87;101662.28;5074974;28;20482;-53
2023/10/28 02:11:53;;;;;;;4.97;2.28;;;;;;;14.48;55.32;101671.63;5070683;28;20036;-54
2023/10/28 02:14:20;;;;;;;2.47;1.48;;;;;;;14.34;56.46;101683.44;5059879;28;20027;-54
2023/10/28 02:16:46;;;;;;;4.13;1.40;;;;;;;14.33;56.34;101680.97;5061111;28;20071;-53
2023/10/28 02:19:14;;;;;;;3.17;1.58;;;;;;;14.43;56.22;101689.41;5074953;28;20052;-52
2023/10/28 02:21:40;;;;;;;2.65;1.65;;;;;;;14.20;56.82;101687.19;5074624;28;20029;-54
2023/10/28 02:24:06;;;;;;;2.05;1.30;;;;;;;14.02;57.62;101689.69;5074610;28;20119;-50
2023/10/28 02:26:34;;;;;;;3.22;1.25;;;;;;;14.03;57.58;101689.47;5074003;28;20047;-52
2023/10/28 02:29:01;;;;;;;3.58;1.42;;;;;;;13.99;57.56;101688.22;5073871;28;20025;-52
2023/10/28 02:31:29;;;;;;;3.28;1.25;;;;;;;13.97;57.78;101683.06;5081425;22;20055;-53
2023/10/28 02:33:55;;;;;;;2.03;1.23;;;;;;;13.87;58.33;101679.97;5074303;28;20028;-52
2023/10/28 02:36:21;;;;;;;2.38;1.50;;;;;;;13.82;58.68;101684.31;5074126;28;20025;-51
2023/10/28 02:38:48;;;;;;;2.55;1.40;;;;;;;13.73;59.55;101683.69;5074536;28;20021;-53
2023/10/28 02:41:14;;;;;;;2.90;1.38;;;;;;;13.76;59.10;101685.97;5071585;28;20078;-50
2023/10/28 02:43:41;;;;;;;1.80;1.10;;;;;;;13.74;59.16;101682.66;5055610;28;20021;-53
2023/10/28 02:46:07;;;;;;;3.25;1.25;;;;;;;13.70;59.49;101684.09;5054087;28;20490;-53
2023/10/28 02:48:34;;;;;;;1.73;1.20;;;;;;;13.68;59.43;101684.31;5053768;28;20443;-53
2023/10/28 02:51:05;;;;;;;1.40;1.20;;;;;;;13.63;59.90;101686.78;5063949;28;20035;-54
2023/10/28 02:53:32;;;;;;;1.60;1.30;;;;;;;13.58;60.18;101677.69;5060140;28;20049;-54
2023/10/28 02:56:02;;;;;;;3.35;1.67;;;;;;;13.51;60.26;101669.59;5054259;28;20104;-50
2023/10/28 02:58:29;;;;;;;2.97;1.63;;;;;;;13.53;60.47;101677.47;5054166;28;20029;-53
2023/10/28 03:00:57;;;;;;;2.88;1.73;;;;;;;13.42;60.71;101687.78;5054390;28;20032;-53
2023/10/28 03:03:23;;;;;;;4.28;1.67;;;;;;;13.34;60.77;101695.22;5053752;28;20029;-53
2023/10/28 03:05:50;;;;;;;1.63;1.25;;;;;;;13.27;60.98;101686.28;5054024;28;20490;-53
2023/10/28 03:08:17;;;;;;;2.63;1.63;;;;;;;13.20;61.24;101688.94;5053857;28;20029;-53
2023/10/28 03:10:44;;;;;;;4.03;1.98;;;;;;;13.17;61.92;101695.56;5054304;28;20021;-53
2023/10/28 03:13:10;;;;;;;3.95;1.90;;;;;;;13.12;62.14;101699.88;5053605;28;20086;-53
2023/10/28 03:15:36;;;;;;;2.03;1.60;;;;;;;13.02;62.33;101688.69;5053682;28;20083;-53
2023/10/28 03:18:03;;;;;;;3.22;1.58;;;;;;;12.94;62.56;101685.16;5070377;28;20024;-51
2023/10/28 03:20:29;;;;;;;8.43;2.20;;;;;;;13.00;62.67;101685.38;5073280;28;20021;-52
2023/10/28 03:22:56;;;;;;;3.75;2.17;;;;;;;12.87;63.17;101678.91;5073566;28;20025;-53
2023/10/28 03:25:23;;;;;;;4.15;2.15;;;;;;;12.79;63.78;101683.63;5066280;28;20025;-53
2023/10/28 03:27:49;;;;;;;3.35;2.17;;;;;;;12.76;64.11;101679.47;5052883;28;20122;-53
2023/10/28 03:30:16;;;;;;;6.82;2.60;;;;;;;12.59;65.26;101684.34;5052749;28;20056;-53
2023/10/28 03:32:42;;;;;;;5.00;2.05;;;;;;;12.53;65.90;101690.53;5053109;28;20025;-53
2023/10/28 03:35:08;;;;;;;4.15;2.20;;;;;;;12.56;65.77;101683.94;5052703;28;20029;-53
2023/10/28 03:37:37;;;;;;;4.65;2.40;;;;;;;12.43;66.90;101682.00;5052969;28;20028;-51
2023/10/28 03:40:04;;;;;;;4.22;2.55;;;;;;;12.12;69.38;101685.09;5053021;28;20029;-53
2023/10/28 03:42:31;;;;;;;5.38;2.83;;;;;;;12.07;70.02;101688.38;5053267;28;20036;-52
2023/10/28 03:44:59;;;;;;;9.00;3.55;;;;;;;11.73;71.95;101678.38;5071985;28;20024;-53
2023/10/28 03:47:25;;;;;;;11.07;3.33;;;;;;;11.67;72.60;101678.31;5072804;28;20028;-52
2023/10/28 03:49:51;;;;;;;5.88;3.40;;;;;;;11.65;72.70;101675.81;5072415;28;20021;-51
2023/10/28 03:52:17;;;;;;;3.00;2.67;;;;;;;11.60;72.56;101667.50;5072562;28;20024;-50
2023/10/28 03:54:44;;;;;;;3.65;1.95;;;;;;;11.44;73.34;101662.41;5071007;28;20032;-51
2023/10/28 03:57:10;;;;;;;5.30;1.80;;;;;;;11.63;72.20;101673.31;5072864;28;20025;-53
2023/10/28 03:59:36;;;;;;;3.92;2.03;;;;;;;11.64;71.94;101674.16;5072238;28;20432;-53
2023/10/28 04:02:03;;;;;;;6.07;2.22;;;;;;;11.58;71.97;101669.56;5072937;28;20039;-53
2023/10/28 04:04:30;;;;;;;4.80;2.08;;;;;;;11.74;71.13;101690.75;5061194;28;20037;-51
2023/10/28 04:06:56;;;;;;;4.55;2.03;;;;;;;11.60;71.19;101683.59;5054740;28;20033;-53
2023/10/28 04:09:23;;;;;;;5.80;1.80;;;;;;;11.60;70.75;101703.22;5052017;28;20028;-53
2023/10/28 04:11:49;;;;;;;2.80;1.60;;;;;;;11.67;69.68;101710.50;5070956;28;20495;-49
2023/10/28 04:14:16;;;;;;;3.67;1.70;;;;;;;11.62;69.05;101711.88;5070798;28;20115;-53
2023/10/28 04:16:42;;;;;;;3.10;1.63;;;;;;;11.49;69.21;101710.91;5055289;28;20412;-52
2023/10/28 04:19:08;;;;;;;3.30;1.90;;;;;;;11.63;68.54;101708.19;5053572;28;20036;-50
2023/10/28 04:21:35;;;;;;;3.80;2.15;;;;;;;11.53;68.47;101714.88;5067135;28;20390;-52
2023/10/28 04:24:01;;;;;;;4.22;2.10;;;;;;;11.36;69.42;101720.47;5072285;28;20556;-53
2023/10/28 04:26:27;;;;;;;2.60;1.50;;;;;;;11.22;70.37;101718.69;5072475;28;20056;-52
2023/10/28 04:28:54;;;;;;;4.40;1.90;;;;;;;11.35;70.06;101726.88;5071585;28;20024;-51
2023/10/28 04:31:20;;;;;;;2.90;1.85;;;;;;;11.24;70.92;101727.34;5072201;28;20455;-52
2023/10/28 04:33:46;;;;;;;4.57;2.22;;;;;;;11.15;70.77;101723.13;5072139;28;20067;-52
2023/10/28 04:36:12;;;;;;;5.53;2.30;;;;;;;11.26;70.87;101728.00;5072138;28;20033;-51
2023/10/28 04:38:40;;;;;;;4.18;2.03;;;;;;;11.26;70.46;101728.00;5070754;28;20478;-52
2023/10/28 04:41:08;;;;;;;2.92;1.67;;;;;;;11.32;69.76;101731.75;5071862;28;20032;-53
2023/10/28 04:43:35;;;;;;;5.43;2.65;;;;;;;11.29;69.69;101737.53;5072030;28;20031;-50
2023/10/28 04:46:01;;;;;;;4.57;1.98;;;;;;;11.30;69.51;101747.22;5072052;28;20031;-53
2023/10/28 04:48:28;;;;;;;3.95;2.17;;;;;;;11.31;69.16;101747.03;5071972;28;20028;-50
2023/10/28 04:50:55;;;;;;;6.63;2.85;;;;;;;11.29;69.12;101749.06;5068384;28;20059;-51
2023/10/28 04:53:24;;;;;;;4.18;2.50;;;;;;;11.23;69.42;101763.22;5051332;28;20112;-51
2023/10/28 04:55:51;;;;;;;3.72;2.15;;;;;;;11.28;69.32;101758.13;5051779;28;20074;-49
2023/10/28 04:58:17;;;;;;;4.40;2.38;;;;;;;11.22;69.39;101766.09;5051321;28;20554;-52
2023/10/28 05:00:45;;;;;;;4.65;2.20;;;;;;;11.19;69.87;101761.94;5051937;28;20025;-51
2023/10/28 05:03:12;;;;;;;5.47;2.60;;;;;;;10.86;71.22;101766.03;5055419;28;20423;-51
2023/10/28 05:05:39;;;;;;;5.72;2.20;;;;;;;10.88;71.90;101769.34;5070378;28;20157;-52
2023/10/28 05:08:05;;;;;;;3.80;2.10;;;;;;;11.04;71.33;101774.50;5071958;28;20024;-51
2023/10/28 05:10:32;;;;;;;5.38;2.63;;;;;;;10.92;71.81;101778.69;5071857;28;20021;-51
2023/10/28 05:12:59;;;;;;;6.15;2.63;;;;;;;10.74;72.47;101785.22;5070894;28;20390;-52
2023/10/28 05:15:25;;;;;;;10.18;3.13;;;;;;;10.60;73.31;101780.69;5066332;28;20051;-51
2023/10/28 05:17:51;;;;;;;5.47;2.20;;;;;;;10.22;75.77;101770.00;5072025;28;20029;-52
2023/10/28 05:20:18;;;;;;;4.82;2.47;;;;;;;10.37;74.83;101767.38;5090173;22;20056;-52
2023/10/28 05:22:44;;;;;;;4.85;1.90;;;;;;;10.37;74.60;101772.72;5091983;28;20062;-52
2023/10/28 05:25:11;;;;;;;8.15;2.08;;;;;;;10.48;73.69;101768.78;5091576;28;20470;-50
2023/10/28 05:27:37;;;;;;;3.22;2.00;;;;;;;10.47;73.45;101777.81;5091733;28;20347;-52
2023/10/28 05:30:04;;;;;;;3.58;1.95;;;;;;;10.58;72.95;101782.72;5091899;28;20466;-52
2023/10/28 05:32:31;;;;;;;4.65;1.90;;;;;;;10.55;72.67;101780.44;5090634;28;20389;-52
2023/10/28 05:34:57;;;;;;;2.58;1.95;;;;;;;10.50;72.81;101783.66;5090936;28;20441;-52
2023/10/28 05:37:24;;;;;;;3.50;2.47;;;;;;;10.38;73.44;101773.53;5091823;28;20032;-53
2023/10/28 05:39:50;;;;;;;5.35;2.30;;;;;;;10.56;72.99;101774.06;5092164;28;20134;-51
2023/10/28 05:42:17;;;;;;;4.57;2.78;;;;;;;10.54;72.71;101782.25;5093182;28;20031;-51
2023/10/28 05:44:43;;;;;;;3.72;1.85;;;;;;;10.49;72.42;101773.97;5095716;28;20478;-50
2023/10/28 05:47:11;;;;;;;4.82;2.08;;;;;;;10.27;74.16;101767.66;5095741;28;20399;-50
2023/10/28 05:49:38;;;;;;;3.38;1.95;;;;;;;10.03;75.03;101773.97;5095752;28;20038;-49
2023/10/28 05:52:05;;;;;;;4.97;2.20;;;;;;;10.14;74.64;101767.38;5095950;28;20028;-52
2023/10/28 05:54:31;;;;;;;4.30;2.70;;;;;;;10.06;74.48;101767.47;5091089;28;20024;-49
2023/10/28 05:56:58;;;;;;;6.47;2.88;;;;;;;9.66;76.45;101769.44;5094976;28;20071;-51
2023/10/28 05:59:24;;;;;;;7.57;4.25;;;;;;;9.63;76.67;101767.09;5077219;28;20485;-49
2023/10/28 06:01:51;;;;;;;8.18;4.90;;;;;;;9.46;77.38;101769.03;5074780;28;20037;-52
2023/10/28 06:04:21;;;;;;;6.07;3.30;;;;;;;9.38;78.14;101770.91;5074952;28;20028;-51
2023/10/28 06:06:48;;;;;;;6.13;3.65;;;;;;;9.40;77.92;101782.28;5075416;28;20482;-51
2023/10/28 06:09:15;;;;;;;6.13;3.28;;;;;;;9.61;76.83;101787.00;5094775;28;20111;-52
2023/10/28 06:11:42;;;;;;;5.57;3.08;;;;;;;9.66;76.47;101788.16;5095381;28;20036;-52
2023/10/28 06:14:09;;;;;;;5.82;2.50;;;;;;;9.64;76.49;101792.00;5093673;28;20367;-52
2023/10/28 06:16:35;;;;;;;3.60;2.00;;;;;;;9.82;75.54;101789.03;5095123;28;20020;-49
2023/10/28 06:19:02;;;;;;;2.70;1.98;;;;;;;9.94;74.56;101777.75;5095069;28;20023;-52
2023/10/28 06:21:28;;;;;;;3.45;1.73;;;;;;;9.94;74.59;101782.28;5094957;28;20169;-51
2023/10/28 06:23:54;;;;;;;3.33;1.75;;;;;;;9.90;74.47;101791.66;5094387;28;20052;-51
2023/10/28 06:26:20;;;;;;;3.58;2.15;;;;;;;9.65;75.10;101794.47;5094909;28;20023;-51
2023/10/28 06:28:47;;;;;;;3.88;2.30;;;;;;;9.20;77.79;101795.22;5095095;28;20028;-49
2023/10/28 06:31:14;;;;;;;4.82;1.98;;;;;;;9.21;77.59;101792.38;5095210;28;20028;-51
2023/10/28 06:33:40;;;;;;;3.25;2.33;;;;;;;9.36;77.29;101791.63;5087739;28;20023;-52
2023/10/28 06:36:08;;;;;;;4.55;2.78;;;;;;;9.41;76.89;101787.44;5074071;28;20046;-49
2023/10/28 06:38:35;;;;;;;3.63;2.50;;;;;;;9.38;76.84;101792.28;5074115;28;20063;-48
2023/10/28 06:41:01;;;;;;;6.57;3.55;;;;;;;9.26;77.22;101782.00;5074286;28;20469;-52
2023/10/28 06:43:27;;;;;;;9.80;2.92;;;;;;;9.32;77.14;101788.47;5073860;28;20078;-52
2023/10/28 06:45:53;;;;;;;4.95;3.00;;;;;;;9.50;76.02;101786.41;5074243;28;20098;-51
2023/10/28 06:48:20;;;;;;;6.18;3.17;;;;;;;9.41;76.50;101786.59;5078671;28;20123;-52
2023/10/28 06:50:47;;;;;;;7.90;2.95;;;;;;;9.35;76.76;101779.28;5083316;28;20032;-52
2023/10/28 06:53:14;;;;;;;4.28;2.30;;;;;;;9.36;76.87;101775.63;5072602;28;20111;-52
2023/10/28 06:55:40;;;;;;;4.65;2.38;;;;;;;9.19;77.70;101765.00;5073821;28;20024;-52
2023/10/28 06:58:06;;;;;;;5.97;2.15;;;;;;;9.05;78.30;101764.88;5073561;28;20029;-52
2023/10/28 07:00:32;;;;;;;5.25;2.20;;;;;;;9.15;77.70;101782.38;5077295;28;20182;-52
2023/10/28 07:02:59;;;;;;;3.53;2.08;;;;;;;9.26;76.94;101784.66;5090257;28;20031;-52
2023/10/28 07:05:25;;;;;;;3.42;2.22;;;;;;;9.32;76.95;101772.44;5074137;28;20028;-51
2023/10/28 07:07:56;;;;;;;4.68;2.85;;;;;;;9.27;77.22;101777.47;5074113;28;20028;-52
2023/10/28 07:10:22;;;;;;;3.85;2.60;;;;;;;9.34;76.41;101775.78;5091503;28;20043;-52
2023/10/28 07:12:49;;;;;;;5.95;2.67;;;;;;;9.17;77.80;101780.38;5093983;28;20024;-51
2023/10/28 07:15:16;;;;;;;5.18;2.25;;;;;;;9.27;77.32;101782.81;5094156;28;20099;-52
2023/10/28 07:17:43;;;;;;;4.70;1.90;;;;;;;9.29;77.58;101788.00;5094131;28;20051;-51
2023/10/28 07:20:09;;;;;;;3.42;2.00;;;;;;;8.96;78.56;101778.28;5093959;28;20460;-51
2023/10/28 07:22:36;;;;;;;3.25;2.03;;;;;;;8.36;82.24;101780.59;5093873;28;20024;-51
2023/10/28 07:25:04;;;;;;;5.30;2.28;;;;;;;8.39;82.40;101789.09;5093683;28;20051;-49
2023/10/28 07:27:31;;;;;;;3.35;2.47;;;;;;;8.50;82.00;101779.91;5093831;28;20028;-50
2023/10/28 07:29:59;;;;;;;4.38;1.98;;;;;;;8.59;81.85;101778.06;5093991;28;20509;-48
2023/10/28 07:32:26;;;;;;;3.88;1.85;;;;;;;8.80;80.44;101783.69;5093439;28;20143;-49
2023/10/28 07:34:52;;;;;;;4.47;2.17;;;;;;;8.54;81.68;101794.56;5093013;28;20032;-49
2023/10/28 07:37:18;;;;;;;4.60;1.95;;;;;;;8.58;81.57;101792.41;5092792;28;20035;-49
2023/10/28 07:39:45;;;;;;;2.85;1.70;;;;;;;8.71;81.00;101785.53;5093573;28;20107;-51
2023/10/28 07:42:11;;;;;;;4.93;1.83;;;;;;;8.76;80.41;101781.50;5097467;28;20077;-50
2023/10/28 07:44:37;;;;;;;3.85;1.90;;;;;;;8.79;80.18;101778.53;5085582;28;20621;-50
2023/10/28 07:47:03;;;;;;;5.45;2.17;;;;;;;8.79;80.06;101781.19;5073186;28;20037;-51
2023/10/28 07:49:30;;;;;;;3.15;2.00;;;;;;;8.76;80.15;101787.69;5073166;28;20112;-51
2023/10/28 07:51:56;;;;;;;5.07;1.80;;;;;;;8.80;79.77;101782.84;5073287;28;20070;-51
2023/10/28 07:54:23;;;;;;;3.22;1.85;;;;;;;8.45;81.23;101784.94;5089237;28;20024;-48
2023/10/28 07:56:51;;;;;;;3.83;2.08;;;;;;;8.56;80.39;101792.59;5113731;28;20051;-52
2023/10/28 07:59:19;;;;;;;5.13;2.10;;;;;;;8.37;81.51;101798.25;5113607;28;20031;-50
2023/10/28 08:01:45;;;;;;;2.97;1.50;;;;;;;8.58;80.23;101800.41;5113395;28;20020;-52
2023/10/28 08:04:13;;;;;;;3.80;1.98;;;;;;;8.38;81.37;101789.25;5113208;28;20039;-49
2023/10/28 08:06:42;;;;;;;3.33;2.05;;;;;;;8.45;81.37;101795.59;5095626;28;20401;-52
2023/10/28 08:09:09;;;;;;;2.63;1.98;;;;;;;8.53;80.99;101798.25;5093277;28;20024;-52
2023/10/28 08:11:36;;;;;;;6.57;2.17;;;;;;;8.58;81.00;101795.06;5092853;28;20039;-52
2023/10/28 08:14:03;;;;;;;3.63;1.88;;;;;;;8.57;80.60;101794.25;5093027;28;20032;-52
2023/10/28 08:16:29;;;;;;;6.47;2.22;;;;;;;8.50;80.92;101803.94;5093002;28;20397;-51
2023/10/28 08:18:56;;;;;;;6.78;2.42;;;;;;;8.17;82.34;101814.59;5091453;28;20031;-50
2023/10/28 08:21:24;;;;;;;3.45;2.10;;;;;;;8.33;81.67;101820.91;5077879;28;20032;-52
2023/10/28 08:23:50;;;;;;;4.38;2.20;;;;;;;8.33;81.64;101818.22;5071843;28;20493;-52
2023/10/28 08:26:19;;;;;;;3.22;1.92;;;;;;;8.41;80.95;101819.09;5072080;28;20032;-51
2023/10/28 08:28:52;;;;;;;2.88;1.92;;;;;;;8.42;80.45;101817.25;5072169;28;20035;-52
2023/10/28 08:31:18;;;;;;;4.32;1.70;;;;;;;8.51;80.05;101823.44;5095606;28;20457;-52
2023/10/28 08:33:45;;;;;;;3.28;1.80;;;;;;;8.56;79.81;101813.09;5092347;28;20032;-50
2023/10/28 08:36:11;;;;;;;2.85;1.95;;;;;;;8.57;79.50;101804.09;5092436;28;20016;-53
2023/10/28 08:38:38;;;;;;;3.38;1.70;;;;;;;8.45;79.66;101808.94;5077850;28;20107;-53
2023/10/28 08:41:08;;;;;;;4.93;1.70;;;;;;;8.37;80.54;101803.59;5071926;28;20024;-52
2023/10/28 08:43:35;;;;;;;3.92;2.20;;;;;;;8.27;80.79;101802.91;5071707;28;20048;-53
2023/10/28 08:46:04;;;;;;;2.78;1.83;;;;;;;8.16;81.25;101801.41;5071766;28;20029;-52
2023/10/28 08:48:33;;;;;;;3.70;1.80;;;;;;;8.15;81.22;101800.56;5071831;28;20040;-53
2023/10/28 08:51:00;;;;;;;4.45;2.30;;;;;;;7.84;82.49;101794.22;5071935;28;20028;-53
2023/10/28 08:53:28;;;;;;;5.93;2.03;;;;;;;7.56;84.43;101794.50;5071494;28;20047;-53
2023/10/28 08:56:00;;;;;;;4.15;1.90;;;;;;;7.49;84.44;101790.81;5071507;28;20035;-52
2023/10/28 08:58:28;;;;;;;3.63;1.77;;;;;;;7.59;83.81;101801.31;5071582;28;20024;-52
2023/10/28 09:00:59;;;;;;;4.05;1.85;;;;;;;7.71;83.17;101793.84;5074767;28;20482;-50
2023/10/28 09:03:26;;;;;;;5.85;1.88;;;;;;;7.78;82.78;101794.88;5089880;28;20040;-50
2023/10/28 09:05:54;;;;;;;5.20;2.38;;;;;;;7.79;83.04;101791.22;5091773;28;20059;-53
2023/10/28 09:08:20;;;;;;;4.20;1.90;;;;;;;7.83;82.59;101796.06;5092398;28;20119;-52
2023/10/28 09:10:47;;;;;;;3.95;2.00;;;;;;;7.89;82.38;101789.25;5092315;28;20035;-53
2023/10/28 09:13:14;;;;;;;4.97;2.00;;;;;;;7.67;83.42;101796.03;5081960;28;20039;-51
2023/10/28 09:15:41;;;;;;;6.97;1.90;;;;;;;7.74;82.95;101796.22;5082642;28;20158;-53
2023/10/28 09:18:10;;;;;;;2.85;1.60;;;;;;;7.81;82.26;101797.22;5090991;28;20379;-52
2023/10/28 09:20:41;;;;;;;4.40;2.03;;;;;;;7.81;82.15;101799.88;5091896;28;20048;-54
2023/10/28 09:23:07;;;;;;;11.18;2.25;;;;;;;7.28;85.29;101807.25;5091834;28;20138;-52
2023/10/28 09:25:34;;;;;;;5.40;2.13;;;;;;;7.14;86.09;101800.69;5092206;28;20028;-51
2023/10/28 09:28:03;;;;;;;2.50;2.03;;;;;;;7.09;86.96;101808.31;5091956;28;20557;-53
2023/10/28 09:30:29;;;;;;;3.63;1.50;;;;;;;7.40;84.89;101813.09;5091548;28;20024;-51
2023/10/28 09:32:57;;;;;;;5.13;1.80;;;;;;;7.42;84.82;101811.09;5091559;28;20073;-52
2023/10/28 09:35:26;;;;;;;4.13;1.98;;;;;;;7.17;87.17;101806.69;5091849;28;20031;-53
2023/10/28 09:37:53;;;;;;;5.22;2.28;;;;;;;7.05;87.50;101808.78;5092215;28;20032;-51
2023/10/28 09:40:20;;;;;;;4.03;2.08;;;;;;;7.08;87.62;101805.81;5091697;28;20039;-52
2023/10/28 09:42:48;;;;;;;5.07;2.00;;;;;;;6.96;88.52;101807.94;5091404;28;20446;-52
2023/10/28 09:45:16;;;;;;;5.35;2.05;;;;;;;6.67;89.84;101815.41;5091427;28;20095;-50
2023/10/28 09:48:02;;;;;;;4.97;2.03;;;;;;;6.97;88.72;101814.09;5089268;28;20024;-52
2023/10/28 09:50:31;;;;;;;3.92;1.98;;;;;;;6.90;89.07;101819.22;5070667;28;20024;-49
2023/10/28 09:52:58;;;;;;;5.07;1.80;;;;;;;6.85;89.30;101802.88;5070876;28;20121;-53
2023/10/28 09:55:36;;;;;;;3.97;1.75;;;;;;;6.84;89.12;101812.69;5087556;28;20043;-52
2023/10/28 09:58:16;;;;;;;2.42;1.90;;;;;;;6.71;90.28;101806.94;5088243;28;20020;-52
2023/10/28 10:00:46;;;;;;;2.95;2.10;;;;;;;6.99;88.35;101815.56;5088135;28;20073;-52
2023/10/28 10:03:35;;;;;;;4.88;1.80;;;;;;;7.15;87.69;101813.00;5111429;28;20559;-49
2023/10/28 10:06:01;;;;;;;3.63;1.92;;;;;;;7.10;87.31;101806.47;5079702;22;20063;-49
2023/10/28 10:08:28;;;;;;;3.90;1.75;;;;;;;7.17;87.06;101804.03;5071535;28;20024;-51
2023/10/28 10:10:57;;;;;;;7.75;2.25;;;;;;;6.73;89.08;101804.13;5058865;28;20052;-50
2023/10/28 10:13:24;;;;;;;5.80;1.80;;;;;;;6.49;90.95;101805.63;5056621;28;20016;-48
2023/10/28 10:16:05;;;;;;;4.68;2.10;;;;;;;6.51;91.37;101802.84;5071330;28;20025;-49
2023/10/28 10:18:46;;;;;;;4.13;1.98;;;;;;;6.64;90.19;101805.06;5071661;28;20103;-52
2023/10/28 10:21:14;;;;;;;4.03;2.17;;;;;;;6.69;90.11;101805.44;5071212;28;20028;-51
2023/10/28 10:23:43;;;;;;;2.00;1.50;;;;;;;6.82;89.27;101812.00;5070904;28;20489;-50
2023/10/28 10:26:33;;;;;;;4.63;1.98;;;;;;;6.97;88.60;101803.44;5071190;28;20142;-52
2023/10/28 10:29:03;;;;;;;5.22;1.88;;;;;;;7.03;87.99;101808.13;5073609;28;20035;-51
2023/10/28 10:31:34;;;;;;;2.88;1.60;;;;;;;7.07;87.45;101812.13;5074904;28;20394;-52
2023/10/28 10:34:01;;;;;;;3.95;1.90;;;;;;;6.86;87.83;101799.22;5074409;28;20032;-53
2023/10/28 10:36:40;;;;;;;2.70;1.40;;;;;;;6.97;87.49;101796.28;5074655;28;20085;-51
2023/10/28 10:39:20;;;;;;;3.03;1.52;;;;;;;6.97;87.16;101793.63;5077679;28;20032;-52
2023/10/28 10:41:53;;;;;;;2.40;1.63;;;;;;;6.94;86.98;101793.09;5094960;28;20020;-50
2023/10/28 10:44:36;;;;;;;3.00;1.52;;;;;;;7.05;86.47;101788.34;5058643;28;20045;-52
2023/10/28 10:47:04;;;;;;;9.48;2.17;;;;;;;6.97;87.67;101790.97;5054237;28;20025;-52
2023/10/28 10:49:32;;;;;;;2.95;1.50;;;;;;;7.08;86.90;101792.50;5053758;28;20025;-52
2023/10/28 10:52:00;;;;;;;4.35;1.77;;;;;;;7.19;86.15;101794.03;5067653;28;20496;-51
2023/10/28 10:54:31;;;;;;;2.70;1.65;;;;;;;7.10;86.18;101794.00;5090854;28;20535;-50
2023/10/28 10:56:58;;;;;;;4.90;1.65;;;;;;;7.15;85.68;101802.34;5090974;28;20112;-52
2023/10/28 10:59:35;;;;;;;4.97;1.40;;;;;;;7.10;85.66;101799.31;5085163;28;20478;-50
2023/10/28 11:02:02;;;;;;;4.47;1.90;;;;;;;7.10;85.55;101799.31;5076385;28;20114;-52
2023/10/28 11:04:29;;;;;;;2.88;1.60;;;;;;;7.13;85.59;101798.19;5100681;28;20568;-50
2023/10/28 11:06:56;;;;;;;3.03;1.70;;;;;;;7.17;85.16;101788.88;5114852;28;20047;-51
2023/10/28 11:09:23;;;;;;;2.75;1.63;;;;;;;7.27;84.52;101794.91;5114629;28;20076;-50
2023/10/28 11:11:50;;;;;;;3.65;1.50;;;;;;;7.19;84.67;101802.03;5114623;28;20076;-52
2023/10/28 11:14:16;;;;;;;2.75;1.48;;;;;;;7.11;84.98;101801.03;5113339;28;20405;-49
2023/10/28 11:16:45;;;;;;;3.28;2.00;;;;;;;7.14;84.82;101807.84;5094697;28;20027;-49
2023/10/28 11:19:11;;;;;;;2.40;1.50;;;;;;;7.13;84.96;101804.34;5094189;28;20020;-49
2023/10/28 11:21:41;;;;;;;3.45;1.73;;;;;;;7.13;85.13;101796.34;5093839;28;20081;-50
2023/10/28 11:24:12;;;;;;;3.25;1.70;;;;;;;7.07;85.27;101799.66;5093666;28;20024;-49
2023/10/28 11:26:38;;;;;;;2.05;1.42;;;;;;;7.10;84.90;101801.97;5090142;28;20099;-51
2023/10/28 11:29:06;;;;;;;2.33;1.58;;;;;;;7.06;85.09;101805.16;5101699;28;20391;-51
2023/10/28 11:31:34;;;;;;;2.83;1.35;;;;;;;7.01;85.12;101807.44;5114239;28;20070;-51